sensor_id;sensor_type;location;lat;lon;timestamp;P1;durP1;ratioP1;P2;durP2;ratioP2
74933;SDS011;63499;53.232;7.492;2022-10-14T00:01:23;21.40;;;14.80;;
74933;SDS011;63499;53.232;7.492;2022-10-14T00:03:51;23.10;;;15.52;;
74933;SDS011;63499;53.232;7.492;2022-10-14T00:06:25;27.65;;;17.17;;
74933;SDS011;63499;53.232;7.492;2022-10-14T00:08:53;33.05;;;21.00;;
74933;SDS011;63499;53.232;7.492;2022-10-14T00:11:21;28.67;;;18.70;;
74933;SDS011;63499;53.232;7.492;2022-10-14T00:13:56;31.70;;;19.20;;
74933;SDS011;63499;53.232;7.492;2022-10-14T00:16:24;23.52;;;15.70;;
74933;SDS011;63499;53.232;7.492;2022-10-14T00:18:51;24.90;;;16.50;;
74933;SDS011;63499;53.232;7.492;2022-10-14T00:21:18;22.65;;;15.02;;
74933;SDS011;63499;53.232;7.492;2022-10-14T00:23:45;35.35;;;19.17;;
74933;SDS011;63499;53.232;7.492;2022-10-14T00:26:16;33.58;;;20.80;;
74933;SDS011;63499;53.232;7.492;2022-10-14T00:28:43;35.63;;;20.73;;
74933;SDS011;63499;53.232;7.492;2022-10-14T00:31:09;29.83;;;19.88;;
74933;SDS011;63499;53.232;7.492;2022-10-14T00:33:36;39.05;;;26.00;;
74933;SDS011;63499;53.232;7.492;2022-10-14T00:36:04;34.70;;;21.23;;
74933;SDS011;63499;53.232;7.492;2022-10-14T00:38:34;41.80;;;26.15;;
74933;SDS011;63499;53.232;7.492;2022-10-14T00:41:01;38.88;;;20.85;;
74933;SDS011;63499;53.232;7.492;2022-10-14T00:43:28;29.27;;;17.23;;
74933;SDS011;63499;53.232;7.492;2022-10-14T00:45:55;37.95;;;22.52;;
74933;SDS011;63499;53.232;7.492;2022-10-14T00:48:22;34.88;;;20.65;;
74933;SDS011;63499;53.232;7.492;2022-10-14T00:50:51;28.92;;;18.85;;
74933;SDS011;63499;53.232;7.492;2022-10-14T00:53:18;40.05;;;23.00;;
74933;SDS011;63499;53.232;7.492;2022-10-14T00:55:45;37.10;;;21.30;;
74933;SDS011;63499;53.232;7.492;2022-10-14T00:58:13;34.53;;;21.05;;
74933;SDS011;63499;53.232;7.492;2022-10-14T01:00:40;40.00;;;20.92;;
74933;SDS011;63499;53.232;7.492;2022-10-14T01:03:17;41.28;;;25.73;;
74933;SDS011;63499;53.232;7.492;2022-10-14T01:05:47;34.15;;;22.38;;
74933;SDS011;63499;53.232;7.492;2022-10-14T01:08:24;34.17;;;21.65;;
74933;SDS011;63499;53.232;7.492;2022-10-14T01:10:59;32.63;;;20.65;;
74933;SDS011;63499;53.232;7.492;2022-10-14T01:13:34;29.25;;;19.15;;
74933;SDS011;63499;53.232;7.492;2022-10-14T01:16:08;37.15;;;21.75;;
74933;SDS011;63499;53.232;7.492;2022-10-14T01:31:47;37.88;;;23.17;;
74933;SDS011;63499;53.232;7.492;2022-10-14T01:34:19;44.53;;;24.75;;
74933;SDS011;63499;53.232;7.492;2022-10-14T01:36:58;33.83;;;20.93;;
74933;SDS011;63499;53.232;7.492;2022-10-14T01:39:31;42.15;;;22.95;;
74933;SDS011;63499;53.232;7.492;2022-10-14T01:42:08;36.58;;;25.17;;
74933;SDS011;63499;53.232;7.492;2022-10-14T01:44:36;38.17;;;23.65;;
74933;SDS011;63499;53.232;7.492;2022-10-14T01:47:07;36.33;;;21.63;;
74933;SDS011;63499;53.232;7.492;2022-10-14T01:49:36;45.25;;;27.83;;
74933;SDS011;63499;53.232;7.492;2022-10-14T01:52:04;41.35;;;24.10;;
74933;SDS011;63499;53.232;7.492;2022-10-14T01:54:36;36.33;;;21.17;;
74933;SDS011;63499;53.232;7.492;2022-10-14T01:57:06;32.90;;;19.83;;
74933;SDS011;63499;53.232;7.492;2022-10-14T01:59:34;32.60;;;21.27;;
74933;SDS011;63499;53.232;7.492;2022-10-14T02:02:01;40.30;;;26.42;;
74933;SDS011;63499;53.232;7.492;2022-10-14T02:04:27;33.67;;;21.20;;
74933;SDS011;63499;53.232;7.492;2022-10-14T02:07:03;28.98;;;19.58;;
74933;SDS011;63499;53.232;7.492;2022-10-14T02:10:16;32.03;;;20.35;;
74933;SDS011;63499;53.232;7.492;2022-10-14T02:12:49;38.63;;;24.13;;
74933;SDS011;63499;53.232;7.492;2022-10-14T02:15:19;38.00;;;24.00;;
74933;SDS011;63499;53.232;7.492;2022-10-14T02:17:55;40.33;;;21.77;;
74933;SDS011;63499;53.232;7.492;2022-10-14T02:20:24;34.88;;;22.17;;
74933;SDS011;63499;53.232;7.492;2022-10-14T02:23:16;32.65;;;20.05;;
74933;SDS011;63499;53.232;7.492;2022-10-14T02:25:45;43.40;;;25.40;;
74933;SDS011;63499;53.232;7.492;2022-10-14T02:28:14;38.95;;;23.65;;
74933;SDS011;63499;53.232;7.492;2022-10-14T02:30:52;57.95;;;26.73;;
74933;SDS011;63499;53.232;7.492;2022-10-14T02:33:21;43.03;;;25.67;;
74933;SDS011;63499;53.232;7.492;2022-10-14T02:35:49;65.68;;;24.65;;
74933;SDS011;63499;53.232;7.492;2022-10-14T02:38:16;34.28;;;23.20;;
74933;SDS011;63499;53.232;7.492;2022-10-14T02:40:45;43.85;;;24.38;;
74933;SDS011;63499;53.232;7.492;2022-10-14T02:43:13;43.40;;;22.67;;
74933;SDS011;63499;53.232;7.492;2022-10-14T02:45:40;37.38;;;20.95;;
74933;SDS011;63499;53.232;7.492;2022-10-14T02:48:07;41.70;;;21.23;;
74933;SDS011;63499;53.232;7.492;2022-10-14T02:50:36;33.75;;;20.23;;
74933;SDS011;63499;53.232;7.492;2022-10-14T02:53:02;24.80;;;16.50;;
74933;SDS011;63499;53.232;7.492;2022-10-14T02:55:29;117.97;;;28.48;;
74933;SDS011;63499;53.232;7.492;2022-10-14T02:57:57;52.42;;;23.63;;
74933;SDS011;63499;53.232;7.492;2022-10-14T03:00:25;54.42;;;25.13;;
74933;SDS011;63499;53.232;7.492;2022-10-14T03:02:53;41.08;;;23.05;;
74933;SDS011;63499;53.232;7.492;2022-10-14T03:05:20;50.53;;;22.52;;
74933;SDS011;63499;53.232;7.492;2022-10-14T03:07:48;65.93;;;23.05;;
74933;SDS011;63499;53.232;7.492;2022-10-14T03:10:17;57.22;;;22.77;;
74933;SDS011;63499;53.232;7.492;2022-10-14T03:12:48;63.65;;;27.23;;
74933;SDS011;63499;53.232;7.492;2022-10-14T03:15:29;31.85;;;19.95;;
74933;SDS011;63499;53.232;7.492;2022-10-14T03:17:56;80.53;;;29.58;;
74933;SDS011;63499;53.232;7.492;2022-10-14T03:20:32;32.92;;;19.48;;
74933;SDS011;63499;53.232;7.492;2022-10-14T03:22:59;84.10;;;27.80;;
74933;SDS011;63499;53.232;7.492;2022-10-14T03:25:26;78.03;;;22.75;;
74933;SDS011;63499;53.232;7.492;2022-10-14T03:28:09;43.20;;;18.13;;
74933;SDS011;63499;53.232;7.492;2022-10-14T03:30:46;94.13;;;22.98;;
74933;SDS011;63499;53.232;7.492;2022-10-14T03:33:25;67.55;;;22.08;;
74933;SDS011;63499;53.232;7.492;2022-10-14T03:35:57;79.22;;;26.00;;
74933;SDS011;63499;53.232;7.492;2022-10-14T03:38:43;113.03;;;26.05;;
74933;SDS011;63499;53.232;7.492;2022-10-14T03:43:58;30.35;;;15.93;;
74933;SDS011;63499;53.232;7.492;2022-10-14T03:46:25;28.23;;;16.30;;
74933;SDS011;63499;53.232;7.492;2022-10-14T03:49:08;79.78;;;22.45;;
74933;SDS011;63499;53.232;7.492;2022-10-14T03:51:35;116.05;;;23.55;;
74933;SDS011;63499;53.232;7.492;2022-10-14T03:54:13;70.95;;;22.50;;
74933;SDS011;63499;53.232;7.492;2022-10-14T03:56:42;86.25;;;23.33;;
74933;SDS011;63499;53.232;7.492;2022-10-14T03:59:10;35.47;;;15.68;;
74933;SDS011;63499;53.232;7.492;2022-10-14T04:01:37;47.25;;;17.05;;
74933;SDS011;63499;53.232;7.492;2022-10-14T04:04:18;65.63;;;21.33;;
74933;SDS011;63499;53.232;7.492;2022-10-14T04:06:46;119.10;;;23.13;;
74933;SDS011;63499;53.232;7.492;2022-10-14T04:09:14;46.70;;;20.05;;
74933;SDS011;63499;53.232;7.492;2022-10-14T04:11:41;50.47;;;19.38;;
74933;SDS011;63499;53.232;7.492;2022-10-14T04:14:19;127.70;;;23.25;;
74933;SDS011;63499;53.232;7.492;2022-10-14T04:16:48;31.55;;;16.73;;
74933;SDS011;63499;53.232;7.492;2022-10-14T04:19:17;47.70;;;16.02;;
74933;SDS011;63499;53.232;7.492;2022-10-14T04:21:44;117.45;;;20.48;;
74933;SDS011;63499;53.232;7.492;2022-10-14T04:24:10;118.38;;;21.70;;
74933;SDS011;63499;53.232;7.492;2022-10-14T04:26:51;28.38;;;14.80;;
74933;SDS011;63499;53.232;7.492;2022-10-14T04:29:38;41.95;;;17.92;;
74933;SDS011;63499;53.232;7.492;2022-10-14T04:34:38;51.95;;;17.40;;
74933;SDS011;63499;53.232;7.492;2022-10-14T04:37:06;36.83;;;17.38;;
74933;SDS011;63499;53.232;7.492;2022-10-14T04:39:44;72.57;;;18.48;;
74933;SDS011;63499;53.232;7.492;2022-10-14T04:42:11;39.00;;;16.67;;
74933;SDS011;63499;53.232;7.492;2022-10-14T04:44:38;62.88;;;19.30;;
74933;SDS011;63499;53.232;7.492;2022-10-14T04:47:05;21.20;;;13.25;;
74933;SDS011;63499;53.232;7.492;2022-10-14T04:49:31;46.17;;;18.40;;
74933;SDS011;63499;53.232;7.492;2022-10-14T04:52:19;67.57;;;22.42;;
74933;SDS011;63499;53.232;7.492;2022-10-14T04:54:56;41.30;;;17.10;;
74933;SDS011;63499;53.232;7.492;2022-10-14T04:57:33;48.63;;;18.80;;
74933;SDS011;63499;53.232;7.492;2022-10-14T05:00:00;117.20;;;24.17;;
74933;SDS011;63499;53.232;7.492;2022-10-14T05:02:53;51.65;;;21.50;;
74933;SDS011;63499;53.232;7.492;2022-10-14T05:07:56;28.77;;;15.50;;
74933;SDS011;63499;53.232;7.492;2022-10-14T05:10:30;40.33;;;18.95;;
74933;SDS011;63499;53.232;7.492;2022-10-14T05:12:58;67.78;;;19.27;;
74933;SDS011;63499;53.232;7.492;2022-10-14T05:15:28;103.55;;;21.70;;
74933;SDS011;63499;53.232;7.492;2022-10-14T05:18:05;45.90;;;16.95;;
74933;SDS011;63499;53.232;7.492;2022-10-14T05:20:49;46.72;;;19.60;;
74933;SDS011;63499;53.232;7.492;2022-10-14T05:23:19;29.50;;;14.90;;
74933;SDS011;63499;53.232;7.492;2022-10-14T05:25:48;38.45;;;16.00;;
74933;SDS011;63499;53.232;7.492;2022-10-14T05:28:23;30.10;;;14.90;;
74933;SDS011;63499;53.232;7.492;2022-10-14T05:30:49;37.20;;;14.98;;
74933;SDS011;63499;53.232;7.492;2022-10-14T05:33:17;61.60;;;18.58;;
74933;SDS011;63499;53.232;7.492;2022-10-14T05:35:44;86.60;;;17.73;;
74933;SDS011;63499;53.232;7.492;2022-10-14T05:38:13;54.95;;;17.15;;
74933;SDS011;63499;53.232;7.492;2022-10-14T05:40:42;98.03;;;19.27;;
74933;SDS011;63499;53.232;7.492;2022-10-14T05:43:08;113.40;;;20.08;;
74933;SDS011;63499;53.232;7.492;2022-10-14T05:45:40;89.50;;;18.40;;
74933;SDS011;63499;53.232;7.492;2022-10-14T05:48:22;23.10;;;12.07;;
74933;SDS011;63499;53.232;7.492;2022-10-14T05:50:49;44.25;;;14.48;;
74933;SDS011;63499;53.232;7.492;2022-10-14T05:53:18;20.85;;;12.05;;
74933;SDS011;63499;53.232;7.492;2022-10-14T05:55:48;22.80;;;11.75;;
74933;SDS011;63499;53.232;7.492;2022-10-14T05:58:17;27.85;;;14.70;;
74933;SDS011;63499;53.232;7.492;2022-10-14T06:00:44;32.50;;;13.50;;
74933;SDS011;63499;53.232;7.492;2022-10-14T06:03:16;33.22;;;13.48;;
74933;SDS011;63499;53.232;7.492;2022-10-14T06:05:46;17.38;;;11.30;;
74933;SDS011;63499;53.232;7.492;2022-10-14T06:08:12;42.33;;;13.48;;
74933;SDS011;63499;53.232;7.492;2022-10-14T06:10:40;16.90;;;11.77;;
74933;SDS011;63499;53.232;7.492;2022-10-14T06:13:07;17.13;;;10.85;;
74933;SDS011;63499;53.232;7.492;2022-10-14T06:15:36;33.40;;;12.32;;
74933;SDS011;63499;53.232;7.492;2022-10-14T06:18:03;28.00;;;13.48;;
74933;SDS011;63499;53.232;7.492;2022-10-14T06:20:31;19.83;;;11.40;;
74933;SDS011;63499;53.232;7.492;2022-10-14T06:22:58;32.75;;;13.43;;
74933;SDS011;63499;53.232;7.492;2022-10-14T06:25:25;23.35;;;12.55;;
74933;SDS011;63499;53.232;7.492;2022-10-14T06:27:52;21.35;;;10.65;;
74933;SDS011;63499;53.232;7.492;2022-10-14T06:30:18;15.30;;;10.13;;
74933;SDS011;63499;53.232;7.492;2022-10-14T06:32:45;30.83;;;13.63;;
74933;SDS011;63499;53.232;7.492;2022-10-14T06:35:11;22.88;;;12.98;;
74933;SDS011;63499;53.232;7.492;2022-10-14T06:37:38;22.92;;;12.65;;
74933;SDS011;63499;53.232;7.492;2022-10-14T06:40:05;40.70;;;15.80;;
74933;SDS011;63499;53.232;7.492;2022-10-14T06:42:32;34.45;;;13.95;;
74933;SDS011;63499;53.232;7.492;2022-10-14T06:44:59;33.38;;;15.35;;
74933;SDS011;63499;53.232;7.492;2022-10-14T06:47:28;19.65;;;11.48;;
74933;SDS011;63499;53.232;7.492;2022-10-14T06:49:54;28.42;;;14.15;;
74933;SDS011;63499;53.232;7.492;2022-10-14T06:52:21;16.48;;;9.25;;
74933;SDS011;63499;53.232;7.492;2022-10-14T06:54:48;18.23;;;10.43;;
74933;SDS011;63499;53.232;7.492;2022-10-14T06:57:14;23.40;;;13.30;;
74933;SDS011;63499;53.232;7.492;2022-10-14T06:59:41;29.98;;;14.93;;
74933;SDS011;63499;53.232;7.492;2022-10-14T07:02:09;29.70;;;15.43;;
74933;SDS011;63499;53.232;7.492;2022-10-14T07:04:37;17.45;;;10.25;;
74933;SDS011;63499;53.232;7.492;2022-10-14T07:07:05;22.13;;;11.75;;
74933;SDS011;63499;53.232;7.492;2022-10-14T07:09:32;24.13;;;14.25;;
74933;SDS011;63499;53.232;7.492;2022-10-14T07:11:58;32.75;;;16.00;;
74933;SDS011;63499;53.232;7.492;2022-10-14T07:14:25;29.02;;;16.23;;
74933;SDS011;63499;53.232;7.492;2022-10-14T07:16:52;27.00;;;15.15;;
74933;SDS011;63499;53.232;7.492;2022-10-14T07:19:26;21.05;;;12.35;;
74933;SDS011;63499;53.232;7.492;2022-10-14T07:21:52;26.30;;;15.52;;
74933;SDS011;63499;53.232;7.492;2022-10-14T07:24:19;23.48;;;13.18;;
74933;SDS011;63499;53.232;7.492;2022-10-14T07:26:46;22.17;;;13.55;;
74933;SDS011;63499;53.232;7.492;2022-10-14T07:29:13;23.25;;;13.02;;
74933;SDS011;63499;53.232;7.492;2022-10-14T07:31:39;29.08;;;15.75;;
74933;SDS011;63499;53.232;7.492;2022-10-14T07:34:06;24.95;;;14.68;;
74933;SDS011;63499;53.232;7.492;2022-10-14T07:36:37;28.17;;;13.68;;
74933;SDS011;63499;53.232;7.492;2022-10-14T07:39:08;24.52;;;12.70;;
74933;SDS011;63499;53.232;7.492;2022-10-14T07:41:35;27.88;;;15.63;;
74933;SDS011;63499;53.232;7.492;2022-10-14T07:44:03;30.23;;;17.73;;
74933;SDS011;63499;53.232;7.492;2022-10-14T07:46:33;26.77;;;15.70;;
74933;SDS011;63499;53.232;7.492;2022-10-14T07:49:02;23.67;;;12.77;;
74933;SDS011;63499;53.232;7.492;2022-10-14T07:51:29;23.65;;;12.95;;
74933;SDS011;63499;53.232;7.492;2022-10-14T07:53:56;32.08;;;17.70;;
74933;SDS011;63499;53.232;7.492;2022-10-14T07:56:23;28.92;;;16.35;;
74933;SDS011;63499;53.232;7.492;2022-10-14T07:58:50;28.00;;;14.52;;
74933;SDS011;63499;53.232;7.492;2022-10-14T08:01:17;26.20;;;15.32;;
74933;SDS011;63499;53.232;7.492;2022-10-14T08:03:44;28.17;;;15.82;;
74933;SDS011;63499;53.232;7.492;2022-10-14T08:06:11;26.23;;;15.32;;
74933;SDS011;63499;53.232;7.492;2022-10-14T08:08:38;30.02;;;15.88;;
74933;SDS011;63499;53.232;7.492;2022-10-14T08:11:10;34.22;;;16.65;;
74933;SDS011;63499;53.232;7.492;2022-10-14T08:13:37;29.17;;;16.20;;
74933;SDS011;63499;53.232;7.492;2022-10-14T08:16:14;30.80;;;17.15;;
74933;SDS011;63499;53.232;7.492;2022-10-14T08:18:41;24.27;;;14.18;;
74933;SDS011;63499;53.232;7.492;2022-10-14T08:21:08;28.38;;;15.60;;
74933;SDS011;63499;53.232;7.492;2022-10-14T08:23:35;29.35;;;15.23;;
74933;SDS011;63499;53.232;7.492;2022-10-14T08:26:01;29.75;;;17.33;;
74933;SDS011;63499;53.232;7.492;2022-10-14T08:28:28;25.40;;;15.73;;
74933;SDS011;63499;53.232;7.492;2022-10-14T08:30:55;32.13;;;16.05;;
74933;SDS011;63499;53.232;7.492;2022-10-14T08:33:22;33.80;;;18.77;;
74933;SDS011;63499;53.232;7.492;2022-10-14T08:35:48;28.98;;;16.13;;
74933;SDS011;63499;53.232;7.492;2022-10-14T08:38:16;28.70;;;17.17;;
74933;SDS011;63499;53.232;7.492;2022-10-14T08:43:34;27.35;;;16.38;;
74933;SDS011;63499;53.232;7.492;2022-10-14T08:48:47;32.50;;;16.30;;
74933;SDS011;63499;53.232;7.492;2022-10-14T08:51:15;24.55;;;14.35;;
74933;SDS011;63499;53.232;7.492;2022-10-14T08:53:48;31.13;;;16.40;;
74933;SDS011;63499;53.232;7.492;2022-10-14T08:56:15;24.88;;;13.93;;
74933;SDS011;63499;53.232;7.492;2022-10-14T08:58:46;29.63;;;16.83;;
74933;SDS011;63499;53.232;7.492;2022-10-14T09:01:18;25.27;;;15.40;;
74933;SDS011;63499;53.232;7.492;2022-10-14T09:03:45;31.27;;;16.35;;
74933;SDS011;63499;53.232;7.492;2022-10-14T09:06:14;25.52;;;14.98;;
74933;SDS011;63499;53.232;7.492;2022-10-14T09:08:44;24.20;;;15.18;;
74933;SDS011;63499;53.232;7.492;2022-10-14T09:11:19;30.55;;;17.77;;
74933;SDS011;63499;53.232;7.492;2022-10-14T09:16:17;30.30;;;16.45;;
74933;SDS011;63499;53.232;7.492;2022-10-14T09:18:52;30.33;;;17.63;;
74933;SDS011;63499;53.232;7.492;2022-10-14T09:21:31;26.08;;;15.23;;
74933;SDS011;63499;53.232;7.492;2022-10-14T09:24:14;30.75;;;17.38;;
74933;SDS011;63499;53.232;7.492;2022-10-14T09:26:42;27.05;;;16.55;;
74933;SDS011;63499;53.232;7.492;2022-10-14T09:29:25;24.67;;;14.80;;
74933;SDS011;63499;53.232;7.492;2022-10-14T09:31:55;28.33;;;17.88;;
74933;SDS011;63499;53.232;7.492;2022-10-14T09:34:30;31.50;;;16.42;;
74933;SDS011;63499;53.232;7.492;2022-10-14T09:36:59;29.67;;;17.35;;
74933;SDS011;63499;53.232;7.492;2022-10-14T09:39:31;25.80;;;16.17;;
74933;SDS011;63499;53.232;7.492;2022-10-14T09:41:59;32.63;;;19.08;;
74933;SDS011;63499;53.232;7.492;2022-10-14T09:44:26;28.65;;;16.80;;
74933;SDS011;63499;53.232;7.492;2022-10-14T09:46:57;35.80;;;19.45;;
74933;SDS011;63499;53.232;7.492;2022-10-14T09:49:31;37.03;;;20.98;;
74933;SDS011;63499;53.232;7.492;2022-10-14T09:52:05;30.77;;;18.67;;
74933;SDS011;63499;53.232;7.492;2022-10-14T09:54:33;35.60;;;21.45;;
74933;SDS011;63499;53.232;7.492;2022-10-14T09:57:02;33.58;;;19.85;;
74933;SDS011;63499;53.232;7.492;2022-10-14T09:59:29;26.75;;;16.55;;
74933;SDS011;63499;53.232;7.492;2022-10-14T10:01:58;26.92;;;15.27;;
74933;SDS011;63499;53.232;7.492;2022-10-14T10:06:53;30.92;;;19.05;;
74933;SDS011;63499;53.232;7.492;2022-10-14T10:09:20;28.60;;;17.38;;
74933;SDS011;63499;53.232;7.492;2022-10-14T10:11:47;31.45;;;19.45;;
74933;SDS011;63499;53.232;7.492;2022-10-14T10:16:41;26.27;;;17.08;;
74933;SDS011;63499;53.232;7.492;2022-10-14T10:22:14;28.05;;;17.13;;
74933;SDS011;63499;53.232;7.492;2022-10-14T10:24:45;25.25;;;16.45;;
74933;SDS011;63499;53.232;7.492;2022-10-14T10:27:19;28.92;;;17.38;;
74933;SDS011;63499;53.232;7.492;2022-10-14T10:29:46;24.98;;;16.58;;
74933;SDS011;63499;53.232;7.492;2022-10-14T10:39:45;26.33;;;15.75;;
74933;SDS011;63499;53.232;7.492;2022-10-14T10:45:09;22.42;;;15.48;;
74933;SDS011;63499;53.232;7.492;2022-10-14T10:47:42;28.77;;;16.67;;
74933;SDS011;63499;53.232;7.492;2022-10-14T11:00:12;27.35;;;17.58;;
74933;SDS011;63499;53.232;7.492;2022-10-14T11:02:49;30.23;;;18.77;;
74933;SDS011;63499;53.232;7.492;2022-10-14T11:08:11;30.02;;;17.75;;
74933;SDS011;63499;53.232;7.492;2022-10-14T11:13:55;30.10;;;18.15;;
74933;SDS011;63499;53.232;7.492;2022-10-14T11:16:43;32.78;;;18.02;;
74933;SDS011;63499;53.232;7.492;2022-10-14T11:19:36;36.60;;;17.67;;
74933;SDS011;63499;53.232;7.492;2022-10-14T11:22:09;27.50;;;16.70;;
74933;SDS011;63499;53.232;7.492;2022-10-14T11:27:34;33.55;;;18.35;;
74933;SDS011;63499;53.232;7.492;2022-10-14T11:40:51;35.55;;;21.35;;
74933;SDS011;63499;53.232;7.492;2022-10-14T11:43:32;31.65;;;18.45;;
74933;SDS011;63499;53.232;7.492;2022-10-14T11:46:00;34.92;;;20.42;;
74933;SDS011;63499;53.232;7.492;2022-10-14T11:48:31;36.25;;;21.92;;
74933;SDS011;63499;53.232;7.492;2022-10-14T11:53:51;32.28;;;18.27;;
74933;SDS011;63499;53.232;7.492;2022-10-14T11:56:28;36.92;;;20.25;;
74933;SDS011;63499;53.232;7.492;2022-10-14T11:58:58;36.95;;;21.75;;
74933;SDS011;63499;53.232;7.492;2022-10-14T12:01:29;32.60;;;19.05;;
74933;SDS011;63499;53.232;7.492;2022-10-14T12:04:03;35.78;;;22.33;;
74933;SDS011;63499;53.232;7.492;2022-10-14T12:06:39;40.33;;;22.73;;
74933;SDS011;63499;53.232;7.492;2022-10-14T12:09:10;36.75;;;22.20;;
74933;SDS011;63499;53.232;7.492;2022-10-14T12:11:58;41.90;;;22.60;;
74933;SDS011;63499;53.232;7.492;2022-10-14T12:17:21;34.63;;;20.40;;
74933;SDS011;63499;53.232;7.492;2022-10-14T12:19:49;36.08;;;20.92;;
74933;SDS011;63499;53.232;7.492;2022-10-14T12:22:24;36.15;;;20.73;;
74933;SDS011;63499;53.232;7.492;2022-10-14T12:24:55;39.05;;;22.60;;
74933;SDS011;63499;53.232;7.492;2022-10-14T12:27:23;43.38;;;23.17;;
74933;SDS011;63499;53.232;7.492;2022-10-14T12:29:51;46.53;;;25.67;;
74933;SDS011;63499;53.232;7.492;2022-10-14T12:32:27;43.30;;;23.90;;
74933;SDS011;63499;53.232;7.492;2022-10-14T12:34:57;45.45;;;23.55;;
74933;SDS011;63499;53.232;7.492;2022-10-14T12:45:17;40.83;;;23.63;;
74933;SDS011;63499;53.232;7.492;2022-10-14T12:47:45;51.40;;;27.95;;
74933;SDS011;63499;53.232;7.492;2022-10-14T12:52:44;62.83;;;34.20;;
74933;SDS011;63499;53.232;7.492;2022-10-14T12:55:16;66.57;;;36.38;;
74933;SDS011;63499;53.232;7.492;2022-10-14T12:57:44;52.65;;;29.70;;
74933;SDS011;63499;53.232;7.492;2022-10-14T13:02:48;52.13;;;30.38;;
74933;SDS011;63499;53.232;7.492;2022-10-14T13:15:49;53.35;;;30.45;;
74933;SDS011;63499;53.232;7.492;2022-10-14T13:20:59;52.30;;;29.85;;
74933;SDS011;63499;53.232;7.492;2022-10-14T13:23:32;50.92;;;29.95;;
74933;SDS011;63499;53.232;7.492;2022-10-14T13:26:12;59.45;;;32.80;;
74933;SDS011;63499;53.232;7.492;2022-10-14T13:31:40;59.85;;;33.00;;
74933;SDS011;63499;53.232;7.492;2022-10-14T13:34:15;56.20;;;32.55;;
74933;SDS011;63499;53.232;7.492;2022-10-14T13:39:24;61.90;;;33.42;;
74933;SDS011;63499;53.232;7.492;2022-10-14T13:41:52;61.13;;;34.10;;
74933;SDS011;63499;53.232;7.492;2022-10-14T13:44:19;67.35;;;34.05;;
74933;SDS011;63499;53.232;7.492;2022-10-14T13:46:46;62.78;;;33.47;;
74933;SDS011;63499;53.232;7.492;2022-10-14T13:49:17;63.88;;;35.03;;
74933;SDS011;63499;53.232;7.492;2022-10-14T13:52:02;58.97;;;31.88;;
74933;SDS011;63499;53.232;7.492;2022-10-14T13:54:30;54.92;;;30.13;;
74933;SDS011;63499;53.232;7.492;2022-10-14T14:00:06;73.20;;;37.30;;
74933;SDS011;63499;53.232;7.492;2022-10-14T14:02:27;59.05;;;31.70;;
74933;SDS011;63499;53.232;7.492;2022-10-14T14:04:55;58.20;;;32.38;;
74933;SDS011;63499;53.232;7.492;2022-10-14T14:07:23;62.03;;;32.50;;
74933;SDS011;63499;53.232;7.492;2022-10-14T14:09:52;65.78;;;34.78;;
74933;SDS011;63499;53.232;7.492;2022-10-14T14:12:21;65.22;;;33.95;;
74933;SDS011;63499;53.232;7.492;2022-10-14T14:14:48;58.78;;;32.15;;
74933;SDS011;63499;53.232;7.492;2022-10-14T14:17:16;61.08;;;32.20;;
74933;SDS011;63499;53.232;7.492;2022-10-14T14:19:46;59.63;;;32.13;;
74933;SDS011;63499;53.232;7.492;2022-10-14T14:22:22;69.97;;;36.72;;
74933;SDS011;63499;53.232;7.492;2022-10-14T14:24:51;62.17;;;32.30;;
74933;SDS011;63499;53.232;7.492;2022-10-14T14:27:21;57.80;;;30.35;;
74933;SDS011;63499;53.232;7.492;2022-10-14T14:30:02;62.97;;;33.47;;
74933;SDS011;63499;53.232;7.492;2022-10-14T14:32:34;60.92;;;32.40;;
74933;SDS011;63499;53.232;7.492;2022-10-14T14:35:02;62.15;;;33.97;;
74933;SDS011;63499;53.232;7.492;2022-10-14T14:37:31;53.25;;;27.80;;
74933;SDS011;63499;53.232;7.492;2022-10-14T14:40:06;56.92;;;30.10;;
74933;SDS011;63499;53.232;7.492;2022-10-14T14:42:37;54.22;;;30.23;;
74933;SDS011;63499;53.232;7.492;2022-10-14T14:48:05;57.47;;;31.02;;
74933;SDS011;63499;53.232;7.492;2022-10-14T14:50:33;60.13;;;31.90;;
74933;SDS011;63499;53.232;7.492;2022-10-14T14:53:03;53.60;;;29.40;;
74933;SDS011;63499;53.232;7.492;2022-10-14T14:55:33;51.35;;;30.05;;
74933;SDS011;63499;53.232;7.492;2022-10-14T14:58:01;50.22;;;27.73;;
74933;SDS011;63499;53.232;7.492;2022-10-14T15:00:28;47.50;;;27.85;;
74933;SDS011;63499;53.232;7.492;2022-10-14T15:02:57;48.47;;;28.15;;
74933;SDS011;63499;53.232;7.492;2022-10-14T15:05:25;51.35;;;28.50;;
74933;SDS011;63499;53.232;7.492;2022-10-14T15:07:51;46.67;;;27.90;;
74933;SDS011;63499;53.232;7.492;2022-10-14T15:10:22;40.33;;;24.33;;
74933;SDS011;63499;53.232;7.492;2022-10-14T15:12:56;40.38;;;23.33;;
74933;SDS011;63499;53.232;7.492;2022-10-14T15:15:25;43.33;;;28.13;;
74933;SDS011;63499;53.232;7.492;2022-10-14T15:20:37;41.95;;;25.70;;
74933;SDS011;63499;53.232;7.492;2022-10-14T15:25:56;39.70;;;24.35;;
74933;SDS011;63499;53.232;7.492;2022-10-14T15:28:30;47.83;;;27.27;;
74933;SDS011;63499;53.232;7.492;2022-10-14T15:30:58;46.17;;;26.92;;
74933;SDS011;63499;53.232;7.492;2022-10-14T15:33:27;33.15;;;22.27;;
74933;SDS011;63499;53.232;7.492;2022-10-14T15:35:59;32.05;;;21.30;;
74933;SDS011;63499;53.232;7.492;2022-10-14T15:38:29;34.40;;;22.02;;
74933;SDS011;63499;53.232;7.492;2022-10-14T15:40:56;30.83;;;20.38;;
74933;SDS011;63499;53.232;7.492;2022-10-14T15:43:23;26.33;;;18.15;;
74933;SDS011;63499;53.232;7.492;2022-10-14T15:45:56;29.65;;;20.25;;
74933;SDS011;63499;53.232;7.492;2022-10-14T15:48:50;29.73;;;18.00;;
74933;SDS011;63499;53.232;7.492;2022-10-14T15:51:19;28.02;;;20.88;;
74933;SDS011;63499;53.232;7.492;2022-10-14T15:53:46;23.80;;;17.02;;
74933;SDS011;63499;53.232;7.492;2022-10-14T15:56:16;21.52;;;14.85;;
74933;SDS011;63499;53.232;7.492;2022-10-14T15:58:46;24.92;;;15.93;;
74933;SDS011;63499;53.232;7.492;2022-10-14T16:01:18;23.05;;;17.60;;
74933;SDS011;63499;53.232;7.492;2022-10-14T16:03:48;21.42;;;16.13;;
74933;SDS011;63499;53.232;7.492;2022-10-14T16:06:23;25.85;;;17.08;;
74933;SDS011;63499;53.232;7.492;2022-10-14T16:08:58;21.17;;;15.93;;
74933;SDS011;63499;53.232;7.492;2022-10-14T16:11:31;20.40;;;15.02;;
74933;SDS011;63499;53.232;7.492;2022-10-14T16:14:04;22.17;;;15.30;;
74933;SDS011;63499;53.232;7.492;2022-10-14T16:16:36;21.77;;;15.93;;
74933;SDS011;63499;53.232;7.492;2022-10-14T16:21:32;21.05;;;15.57;;
74933;SDS011;63499;53.232;7.492;2022-10-14T16:23:59;29.08;;;18.42;;
74933;SDS011;63499;53.232;7.492;2022-10-14T16:26:30;23.00;;;16.73;;
74933;SDS011;63499;53.232;7.492;2022-10-14T16:28:57;30.98;;;20.98;;
74933;SDS011;63499;53.232;7.492;2022-10-14T16:31:25;31.38;;;22.48;;
74933;SDS011;63499;53.232;7.492;2022-10-14T16:33:52;26.95;;;18.95;;
74933;SDS011;63499;53.232;7.492;2022-10-14T16:36:28;31.25;;;22.85;;
74933;SDS011;63499;53.232;7.492;2022-10-14T16:38:56;27.30;;;20.42;;
74933;SDS011;63499;53.232;7.492;2022-10-14T16:41:25;22.83;;;16.90;;
74933;SDS011;63499;53.232;7.492;2022-10-14T16:43:52;21.33;;;16.88;;
74933;SDS011;63499;53.232;7.492;2022-10-14T16:46:18;24.15;;;18.40;;
74933;SDS011;63499;53.232;7.492;2022-10-14T16:49:06;22.17;;;18.35;;